Montalba, Texas
Current Conditions -  °F | °C
As of 8:15 AM on Sunday 21 Dec 2014 (Local Time) from KPSN Reporting Station
Overcast Overcast  
Wind Chill: 46°   Ceiling: 2300
Heat Index: 46°   Visibility: 7mi
Dew Point: 44°   Wind: 0mph
Humidity: 95%   Direction: NA
Pressure: 30.15"   Gusts: NA
Location:  31.88°N, 95.73°W
Report Text: KPSN 211415Z AUTO 00000KT 7SM OVC023 07/06 A3015 RMK AO2 T00760068
Loading
Personal Weather Stations






























Interactive Weather Map New forecast layout! Learn more

10-Day Weather Forecast

Advertisements
Track Severe Weather on mobile